Terminal Aerodrome Forecast
Issued by NWS Shreveport, LA

Home | Current Version | Previous Version | Text Only | Print | Product List | Glossary On
Versions: 1 2 3 4 5 6 7 8 9 10 11 12 13 14 15 16 17 18 19 20
000
FTUS44 KSHV 280925 AAB
TAFTYR
TAF AMD
KTYR 280925Z 2809/2906 04008KT P6SM OVC012
      TEMPO 2810/2814 OVC006
     FM281800 01013G20KT P6SM VCTS BKN025CB OVC035
     FM290000 36010KT P6SM BKN015 OVC025=

USA.gov is the U.S. government's official web portal to all federal, state and local government web resources and services.